Time;durP1;ratioP1;P1;durP2;ratioP2;P2;SDS_P1;SDS_P2;PMS_P1;PMS_P2;Temp;Humidity;BMP_temperature;BMP_pressure;BME280_temperature;BME280_humidity;BME280_pressure;Samples;Min_cycle;Max_cycle;Signal;HPM_P1;HPM_P2
2022/11/28 00:03:59;;;;;;;11.83;10.83;;;8.30;99.90;;;;;;10292139;28;20199;-80
2022/11/28 00:09:04;;;;;;;11.27;10.37;;;8.30;99.90;;;;;;10291687;28;20792;-80
2022/11/28 00:14:06;;;;;;;11.33;10.33;;;8.40;99.90;;;;;;10309289;28;20215;-80
2022/11/28 00:19:14;;;;;;;11.57;10.57;;;8.30;99.90;;;;;;10277004;28;20227;-80
2022/11/28 00:24:17;;;;;;;11.57;10.57;;;8.40;99.90;;;;;;10276150;28;20187;-80
2022/11/28 00:29:19;;;;;;;11.27;10.27;;;8.40;99.90;;;;;;10261197;28;20211;-80
2022/11/28 00:34:23;;;;;;;12.50;11.30;;;8.40;99.90;;;;;;10263516;28;20710;-80
2022/11/28 00:39:26;;;;;;;11.20;10.20;;;8.40;99.90;;;;;;10274520;28;20266;-80
2022/11/28 00:44:29;;;;;;;12.17;11.07;;;8.40;99.90;;;;;;10276359;28;20575;-79
2022/11/28 00:49:31;;;;;;;11.57;10.40;;;8.40;99.90;;;;;;10313148;28;20725;-80
2022/11/28 00:54:34;;;;;;;9.23;8.43;;;8.40;99.90;;;;;;10300969;28;20227;-80
2022/11/28 00:59:37;;;;;;;9.57;8.77;;;8.40;99.90;;;;;;10339954;28;20578;-80
2022/11/28 01:04:39;;;;;;;9.87;8.87;;;8.30;99.90;;;;;;10286555;28;20196;-79
2022/11/28 01:09:42;;;;;;;12.57;11.33;;;8.20;99.90;;;;;;10334124;28;20231;-80
2022/11/28 01:14:44;;;;;;;9.60;8.70;;;8.10;99.90;;;;;;10309729;28;20227;-79
2022/11/28 01:19:47;;;;;;;9.03;8.13;;;8.10;99.90;;;;;;10285793;28;20583;-79
2022/11/28 01:24:50;;;;;;;9.63;8.83;;;8.00;99.90;;;;;;10327006;28;20192;-79
2022/11/28 01:29:52;;;;;;;9.83;9.03;;;8.10;99.90;;;;;;10247880;28;20225;-78
2022/11/28 01:34:55;;;;;;;9.57;8.77;;;8.00;99.90;;;;;;10315219;28;20220;-80
2022/11/28 01:39:58;;;;;;;9.40;8.50;;;8.00;99.90;;;;;;10326606;28;20247;-80
2022/11/28 01:45:22;;;;;;;8.17;7.40;;;8.00;99.90;;;;;;10322533;28;20206;-80
2022/11/28 01:50:26;;;;;;;107.10;55.50;;;8.00;99.90;;;;;;10255758;28;20247;-80
2022/11/28 01:55:33;;;;;;;11.77;10.53;;;7.90;99.90;;;;;;10321465;28;20223;-80
2022/11/28 02:00:35;;;;;;;7.60;7.00;;;8.00;99.90;;;;;;10279836;28;20278;-80
2022/11/28 02:05:38;;;;;;;8.17;7.50;;;8.00;99.90;;;;;;10334875;28;20183;-80
2022/11/28 02:10:57;;;;;;;8.80;8.10;;;8.00;99.90;;;;;;10282236;28;20228;-82
2022/11/28 02:16:11;;;;;;;9.23;8.27;;;8.00;99.90;;;;;;10320345;28;20258;-79
2022/11/28 02:21:42;;;;;;;9.30;8.60;;;7.90;99.90;;;;;;10286004;28;20764;-81
2022/11/28 02:27:02;;;;;;;9.47;8.60;;;7.90;99.90;;;;;;10328432;28;20279;-79
2022/11/28 02:32:24;;;;;;;13.73;10.40;;;7.90;99.90;;;;;;10291279;28;20494;-79
2022/11/28 02:37:34;;;;;;;11.50;10.40;;;7.90;99.90;;;;;;10292552;28;20205;-80
2022/11/28 02:42:46;;;;;;;11.90;10.90;;;8.00;99.90;;;;;;10299229;28;20199;-79
2022/11/28 02:47:53;;;;;;;9.73;8.90;;;7.90;99.90;;;;;;10308695;28;20248;-79
2022/11/28 02:53:02;;;;;;;9.90;8.90;;;7.90;99.90;;;;;;10311878;28;20211;-79
2022/11/28 02:58:04;;;;;;;10.83;9.93;;;7.80;99.90;;;;;;10325985;28;20222;-79
2022/11/28 03:03:36;;;;;;;10.77;9.87;;;7.80;99.90;;;;;;10312427;28;20617;-79
2022/11/28 03:08:54;;;;;;;10.53;9.60;;;7.90;99.90;;;;;;10320362;28;20349;-79
2022/11/28 03:14:01;;;;;;;10.07;9.07;;;7.90;99.90;;;;;;10318436;28;20675;-79
2022/11/28 03:19:14;;;;;;;10.10;9.07;;;8.00;99.90;;;;;;10320498;28;20212;-79
2022/11/28 03:24:23;;;;;;;9.60;8.80;;;8.00;99.90;;;;;;10300957;28;20235;-79
2022/11/28 03:29:32;;;;;;;10.60;9.70;;;8.00;99.90;;;;;;10304474;28;20211;-79
2022/11/28 03:34:39;;;;;;;9.20;8.40;;;8.10;99.90;;;;;;10323865;28;20215;-79
2022/11/28 03:39:47;;;;;;;9.47;8.63;;;8.10;99.90;;;;;;10310951;28;20279;-79
2022/11/28 03:44:54;;;;;;;9.33;8.53;;;8.20;99.90;;;;;;10323020;28;20191;-82
2022/11/28 03:50:02;;;;;;;10.17;9.17;;;8.20;99.90;;;;;;10300925;28;20212;-80
2022/11/28 03:55:10;;;;;;;9.00;8.20;;;8.20;99.90;;;;;;10306450;28;20215;-79
2022/11/28 04:00:14;;;;;;;8.80;8.10;;;8.20;99.90;;;;;;10318100;28;20223;-80
2022/11/28 04:05:27;;;;;;;8.47;7.83;;;8.10;99.90;;;;;;10323893;28;20291;-80
2022/11/28 04:10:35;;;;;;;10.83;9.73;;;8.10;99.90;;;;;;10314222;28;20318;-79
2022/11/28 04:15:41;;;;;;;11.87;10.67;;;8.10;99.90;;;;;;10323310;28;20650;-80
2022/11/28 04:20:49;;;;;;;9.60;8.80;;;8.00;99.90;;;;;;10317198;28;20216;-80
2022/11/28 04:25:55;;;;;;;9.43;8.63;;;8.00;99.90;;;;;;10308588;28;20218;-80
2022/11/28 04:30:59;;;;;;;19.50;13.57;;;8.00;99.90;;;;;;10341786;28;20278;-79
2022/11/28 04:36:05;;;;;;;10.70;8.70;;;8.00;99.90;;;;;;10303690;28;20672;-79
2022/11/28 04:41:14;;;;;;;13.93;11.97;;;8.00;99.90;;;;;;10288799;28;20282;-79
2022/11/28 04:46:21;;;;;;;10.00;9.10;;;7.90;99.90;;;;;;10326545;28;20246;-79
2022/11/28 04:51:29;;;;;;;12.30;11.10;;;7.90;99.90;;;;;;10337951;28;20278;-79
2022/11/28 04:56:36;;;;;;;8.90;8.17;;;8.00;99.90;;;;;;10299348;28;20215;-79
2022/11/28 05:01:40;;;;;;;7.73;7.13;;;7.90;99.90;;;;;;10305240;28;20224;-79
2022/11/28 05:06:43;;;;;;;8.50;7.80;;;7.90;99.90;;;;;;10312569;28;20195;-79
2022/11/28 05:11:45;;;;;;;8.77;8.00;;;7.90;99.90;;;;;;10342855;28;20258;-79
2022/11/28 05:16:47;;;;;;;8.57;7.83;;;7.90;99.90;;;;;;10270485;28;20238;-79
2022/11/28 05:21:52;;;;;;;7.80;7.20;;;7.90;99.90;;;;;;10299413;28;20219;-79
2022/11/28 05:26:54;;;;;;;8.03;7.33;;;7.90;99.90;;;;;;10306965;28;20223;-79
2022/11/28 05:31:56;;;;;;;8.20;7.50;;;7.90;99.90;;;;;;10315713;28;20691;-80
2022/11/28 05:36:59;;;;;;;7.33;6.73;;;7.90;99.90;;;;;;10328899;28;20219;-80
2022/11/28 05:42:01;;;;;;;7.93;7.23;;;7.90;99.90;;;;;;10323250;28;20654;-80
2022/11/28 05:47:04;;;;;;;7.97;7.40;;;7.90;99.90;;;;;;10323533;28;20251;-81
2022/11/28 05:52:07;;;;;;;9.03;8.23;;;7.80;99.90;;;;;;10322236;28;20651;-80
2022/11/28 05:57:09;;;;;;;8.70;7.90;;;7.90;99.90;;;;;;10317149;28;20577;-81
2022/11/28 06:02:11;;;;;;;10.67;9.00;;;7.90;99.90;;;;;;10326645;28;20283;-80
2022/11/28 06:07:15;;;;;;;10.03;9.10;;;8.00;99.90;;;;;;10328200;28;20190;-80
2022/11/28 06:12:17;;;;;;;9.57;8.60;;;8.10;99.90;;;;;;10317320;28;20694;-79
2022/11/28 06:17:19;;;;;;;10.23;9.33;;;8.10;99.90;;;;;;10313401;28;20251;-79
2022/11/28 06:22:22;;;;;;;10.63;9.63;;;8.20;99.90;;;;;;10316623;28;20619;-80
2022/11/28 06:27:24;;;;;;;9.97;9.07;;;8.20;99.90;;;;;;10313057;28;20195;-79
2022/11/28 06:32:26;;;;;;;9.90;9.00;;;8.10;99.90;;;;;;10324624;28;20207;-78
2022/11/28 06:37:30;;;;;;;10.80;9.90;;;8.20;99.90;;;;;;10308513;28;20218;-79
2022/11/28 06:42:32;;;;;;;8.50;7.80;;;8.20;99.90;;;;;;10308099;28;20660;-78
2022/11/28 06:47:34;;;;;;;10.00;9.10;;;8.20;99.90;;;;;;10286976;28;20220;-78
2022/11/28 06:52:37;;;;;;;12.17;9.00;;;8.20;99.90;;;;;;10302243;28;20224;-79
2022/11/28 06:57:39;;;;;;;8.90;7.87;;;8.20;99.90;;;;;;10278551;28;20224;-78
2022/11/28 07:02:41;;;;;;;9.03;8.13;;;8.10;99.90;;;;;;10293032;28;20210;-79
2022/11/28 07:07:45;;;;;;;7.73;7.13;;;8.10;99.90;;;;;;10334763;23;20684;-84
2022/11/28 07:12:47;;;;;;;11.20;8.43;;;8.10;99.90;;;;;;10355465;28;20199;-84
2022/11/28 07:17:49;;;;;;;9.70;8.70;;;8.10;99.90;;;;;;10341831;28;20225;-84
2022/11/28 07:22:52;;;;;;;8.30;7.57;;;8.10;99.90;;;;;;10353230;28;20191;-84
2022/11/28 07:27:54;;;;;;;8.70;7.80;;;8.20;99.90;;;;;;10361081;28;20250;-84
2022/11/28 07:32:56;;;;;;;9.10;7.70;;;8.20;99.90;;;;;;10348682;28;20198;-84
2022/11/28 07:38:00;;;;;;;10.97;8.60;;;8.20;99.90;;;;;;10339435;28;20269;-84
2022/11/28 07:43:02;;;;;;;13.20;10.43;;;8.30;99.90;;;;;;10342369;28;20554;-84
2022/11/28 07:48:04;;;;;;;13.10;11.57;;;8.30;99.90;;;;;;10366130;28;20215;-84
2022/11/28 07:53:08;;;;;;;9.80;8.80;;;8.40;99.90;;;;;;10349717;28;20199;-84
2022/11/28 07:58:10;;;;;;;29.30;21.60;;;8.40;99.90;;;;;;10345758;28;20219;-82
2022/11/28 08:03:12;;;;;;;15.50;13.50;;;8.50;99.90;;;;;;10346656;28;20197;-83
2022/11/28 08:08:16;;;;;;;13.40;11.90;;;8.50;99.90;;;;;;10364857;28;20219;-83
2022/11/28 08:13:18;;;;;;;11.67;10.77;;;8.50;99.90;;;;;;10353840;28;20226;-83
2022/11/28 08:18:21;;;;;;;11.33;10.33;;;8.60;99.90;;;;;;10366191;28;20223;-83
2022/11/28 08:23:24;;;;;;;13.40;11.47;;;8.60;99.90;;;;;;10352582;28;20659;-84
2022/11/28 08:28:27;;;;;;;14.53;12.47;;;8.70;99.90;;;;;;10342864;28;20716;-83
2022/11/28 08:33:29;;;;;;;12.77;10.90;;;8.80;99.90;;;;;;10326387;28;20663;-83
2022/11/28 08:38:32;;;;;;;11.80;10.60;;;8.80;99.90;;;;;;10339162;28;20239;-83
2022/11/28 08:43:35;;;;;;;14.50;10.90;;;8.90;99.90;;;;;;10336632;28;20195;-84
2022/11/28 08:48:38;;;;;;;16.70;10.80;;;9.00;99.90;;;;;;10322994;28;20238;-83
2022/11/28 08:53:42;;;;;;;12.07;10.40;;;9.00;99.90;;;;;;10320965;28;20250;-83
2022/11/28 08:58:44;;;;;;;11.90;10.47;;;9.10;99.90;;;;;;10321117;28;21147;-84
2022/11/28 09:03:47;;;;;;;11.43;10.23;;;9.20;99.90;;;;;;10335246;28;20187;-83
2022/11/28 09:08:52;;;;;;;11.20;10.00;;;9.30;99.90;;;;;;10338895;28;20234;-83
2022/11/28 09:13:55;;;;;;;17.30;11.30;;;9.30;99.90;;;;;;10350215;28;20210;-83
2022/11/28 09:18:58;;;;;;;21.30;14.50;;;9.40;99.90;;;;;;10374424;28;20215;-83
2022/11/28 09:24:01;;;;;;;16.87;12.60;;;9.50;99.90;;;;;;10337178;28;20603;-83
2022/11/28 09:29:03;;;;;;;18.50;11.70;;;9.50;99.90;;;;;;10356311;28;20594;-84
2022/11/28 09:34:05;;;;;;;19.77;11.10;;;9.60;99.90;;;;;;10353445;28;20302;-84
2022/11/28 09:39:09;;;;;;;17.57;12.43;;;9.60;99.90;;;;;;10343655;28;20219;-84
2022/11/28 09:44:25;;;;;;;17.53;11.67;;;9.70;99.90;;;;;;10349175;28;20277;-84
2022/11/28 09:49:34;;;;;;;17.10;12.97;;;9.70;99.90;;;;;;10353588;28;20228;-84
2022/11/28 09:54:44;;;;;;;17.47;13.60;;;9.70;99.90;;;;;;10334898;28;20218;-83
2022/11/28 09:59:46;;;;;;;23.53;13.97;;;9.70;99.90;;;;;;10369483;28;20649;-84
2022/11/28 10:04:58;;;;;;;13.83;11.27;;;9.80;99.90;;;;;;10348655;28;20199;-84
2022/11/28 10:10:16;;;;;;;13.43;11.13;;;9.80;99.90;;;;;;10358291;28;20257;-84
2022/11/28 10:15:39;;;;;;;26.00;14.70;;;9.90;99.90;;;;;;10355887;28;20273;-84
2022/11/28 10:20:44;;;;;;;15.47;12.50;;;9.90;99.90;;;;;;10362012;28;20211;-84
2022/11/28 10:25:52;;;;;;;37.63;12.73;;;9.90;99.90;;;;;;10351915;28;20203;-84
2022/11/28 10:31:00;;;;;;;17.30;11.90;;;9.90;99.90;;;;;;10336223;28;20286;-84
2022/11/28 10:36:03;;;;;;;21.93;13.23;;;9.90;99.90;;;;;;10348898;28;20215;-84
2022/11/28 10:41:14;;;;;;;13.77;12.37;;;10.00;99.90;;;;;;10347001;28;20299;-84
2022/11/28 10:46:31;;;;;;;13.83;12.27;;;10.00;99.90;;;;;;10345777;28;20192;-83
2022/11/28 10:51:46;;;;;;;20.20;11.50;;;10.00;99.90;;;;;;10344755;28;20222;-84
2022/11/28 10:57:00;;;;;;;20.00;12.10;;;10.10;99.90;;;;;;10344980;28;20716;-84
2022/11/28 11:02:18;;;;;;;14.67;11.20;;;10.10;99.90;;;;;;10345364;28;20222;-84
2022/11/28 11:07:27;;;;;;;16.87;11.93;;;10.10;99.90;;;;;;10328915;28;20282;-84
2022/11/28 11:12:33;;;;;;;12.23;11.10;;;10.20;99.90;;;;;;10328750;28;20258;-84
2022/11/28 11:17:36;;;;;;;14.47;11.30;;;10.20;99.90;;;;;;10344726;28;20218;-83
2022/11/28 11:22:38;;;;;;;15.83;12.90;;;10.20;99.90;;;;;;10332224;28;20192;-84
2022/11/28 11:27:49;;;;;;;12.00;10.77;;;10.30;99.90;;;;;;10319440;28;20242;-84
2022/11/28 11:32:51;;;;;;;20.63;11.57;;;10.30;99.90;;;;;;10330305;28;20290;-84
2022/11/28 11:38:13;;;;;;;16.67;12.80;;;10.30;99.90;;;;;;10340056;28;20214;-84
2022/11/28 11:43:26;;;;;;;14.57;13.07;;;10.30;99.90;;;;;;10345035;28;20198;-82
2022/11/28 11:48:38;;;;;;;14.50;13.10;;;10.30;99.90;;;;;;10310008;28;20303;-84
2022/11/28 11:53:40;;;;;;;21.97;14.70;;;10.30;99.90;;;;;;10343624;28;20219;-84
2022/11/28 11:58:48;;;;;;;33.03;16.23;;;10.30;99.90;;;;;;10324011;28;20900;-84
2022/11/28 12:03:56;;;;;;;18.20;14.80;;;10.30;99.90;;;;;;10298771;28;20564;-81
2022/11/28 12:09:10;;;;;;;16.47;14.73;;;10.30;99.90;;;;;;10329941;28;20594;-83
2022/11/28 12:14:26;;;;;;;16.97;14.60;;;10.20;99.90;;;;;;10330630;28;20245;-84
2022/11/28 12:19:37;;;;;;;18.60;16.70;;;10.20;99.90;;;;;;10331582;28;20218;-83
2022/11/28 12:25:04;;;;;;;18.33;15.40;;;10.20;99.90;;;;;;10327092;28;20232;-84
2022/11/28 12:30:32;;;;;;;14.50;12.33;;;10.20;99.90;;;;;;10332353;28;20628;-84
2022/11/28 12:35:39;;;;;;;11.67;10.53;;;10.30;99.90;;;;;;10313994;28;20318;-83
2022/11/28 12:40:52;;;;;;;12.53;11.03;;;10.30;99.90;;;;;;10325281;28;20238;-83
2022/11/28 12:46:05;;;;;;;14.53;13.13;;;10.30;99.90;;;;;;10338930;28;20203;-83
2022/11/28 12:51:21;;;;;;;17.50;13.83;;;10.40;99.90;;;;;;10317938;28;20265;-83
2022/11/28 12:56:37;;;;;;;16.10;14.40;;;10.40;99.90;;;;;;10330423;28;20581;-83
2022/11/28 13:01:57;;;;;;;20.23;14.33;;;10.40;99.90;;;;;;10321989;28;20236;-83
2022/11/28 13:07:11;;;;;;;26.73;16.43;;;10.50;99.90;;;;;;10327341;28;20294;-83
2022/11/28 13:12:27;;;;;;;27.70;16.60;;;10.50;99.90;;;;;;10330397;23;20638;-80
2022/11/28 13:17:42;;;;;;;16.10;13.93;;;10.50;99.90;;;;;;10290858;28;20305;-80
2022/11/28 13:22:57;;;;;;;15.93;14.33;;;10.60;99.90;;;;;;10269158;28;20220;-82
2022/11/28 13:28:09;;;;;;;17.63;14.17;;;10.60;99.90;;;;;;10225302;28;20242;-82
2022/11/28 13:33:30;;;;;;;19.70;14.87;;;10.70;99.90;;;;;;10276538;28;20200;-82
2022/11/28 13:38:51;;;;;;;18.70;13.00;;;10.60;99.90;;;;;;10263415;28;20712;-82
2022/11/28 13:44:00;;;;;;;16.70;14.90;;;10.70;99.90;;;;;;10259415;28;20206;-83
2022/11/28 13:49:10;;;;;;;19.83;16.70;;;10.70;99.90;;;;;;10276561;28;20627;-81
2022/11/28 13:54:46;;;;;;;19.43;16.37;;;10.70;99.90;;;;;;10284086;28;20238;-82
2022/11/28 13:59:53;;;;;;;17.80;15.47;;;10.70;99.90;;;;;;10245006;28;20228;-80
2022/11/28 14:04:56;;;;;;;18.93;15.47;;;10.70;99.90;;;;;;10268303;28;20192;-80
2022/11/28 14:10:18;;;;;;;17.00;15.40;;;10.70;99.90;;;;;;10258942;28;20244;-80
2022/11/28 14:15:29;;;;;;;17.63;16.00;;;10.70;99.90;;;;;;10278041;28;20220;-81
2022/11/28 14:20:48;;;;;;;18.77;16.63;;;10.70;99.90;;;;;;10265100;28;20319;-82
2022/11/28 14:25:52;;;;;;;17.93;16.10;;;10.70;99.90;;;;;;10256387;28;20266;-84
2022/11/28 14:31:04;;;;;;;20.30;18.20;;;10.60;99.90;;;;;;10238466;28;20221;-82
2022/11/28 14:36:23;;;;;;;19.27;17.27;;;10.60;99.90;;;;;;10260325;28;20222;-81
2022/11/28 14:41:27;;;;;;;20.57;18.57;;;10.60;99.90;;;;;;10230830;29;20212;-83
2022/11/28 14:46:32;;;;;;;19.03;17.20;;;10.60;99.90;;;;;;10216221;28;20405;-83
2022/11/28 14:52:09;;;;;;;17.90;16.30;;;10.50;99.90;;;;;;10245026;29;20232;-82
2022/11/28 14:57:16;;;;;;;20.40;17.07;;;10.50;99.90;;;;;;10250739;28;20287;-83
2022/11/28 15:02:54;;;;;;;20.60;18.57;;;10.50;99.90;;;;;;10242979;29;20414;-82
2022/11/28 15:08:16;;;;;;;22.50;17.07;;;10.50;99.90;;;;;;10232455;29;20664;-81
2022/11/28 15:13:35;;;;;;;39.47;23.07;;;10.40;99.90;;;;;;10211571;29;20235;-80
2022/11/28 15:18:42;;;;;;;16.10;14.37;;;10.40;99.90;;;;;;10232605;28;20279;-81
2022/11/28 15:23:46;;;;;;;15.77;14.27;;;10.40;99.90;;;;;;10279384;28;20216;-81
2022/11/28 15:28:49;;;;;;;15.40;13.90;;;10.40;99.90;;;;;;10267277;28;20297;-83
2022/11/28 15:33:51;;;;;;;17.60;15.97;;;10.30;99.90;;;;;;10273642;28;20200;-85
2022/11/28 15:38:56;;;;;;;16.93;15.33;;;10.30;99.90;;;;;;10240092;29;20236;-84
2022/11/28 15:43:58;;;;;;;17.07;15.50;;;10.20;99.90;;;;;;10253571;28;20211;-84
2022/11/28 15:49:01;;;;;;;18.57;16.70;;;10.20;99.90;;;;;;10240574;29;20685;-85
2022/11/28 15:54:30;;;;;;;20.23;17.50;;;10.20;99.90;;;;;;10250497;28;20205;-84
2022/11/28 15:59:32;;;;;;;23.53;21.33;;;10.10;99.90;;;;;;10210354;28;20227;-84
2022/11/28 16:04:35;;;;;;;17.50;15.83;;;10.10;99.90;;;;;;10270241;28;20238;-85
2022/11/28 16:09:39;;;;;;;18.10;16.10;;;10.00;99.90;;;;;;10235543;28;20225;-85
2022/11/28 16:14:45;;;;;;;20.17;18.27;;;9.90;99.90;;;;;;10246153;28;20204;-85
2022/11/28 16:19:51;;;;;;;14.73;13.17;;;9.90;99.90;;;;;;10263578;28;20224;-85
2022/11/28 16:24:55;;;;;;;15.17;13.67;;;9.80;99.90;;;;;;10250052;28;20224;-84
2022/11/28 16:29:59;;;;;;;16.87;15.40;;;9.80;99.90;;;;;;10245698;28;20220;-83
2022/11/28 16:35:02;;;;;;;14.97;13.47;;;9.70;99.90;;;;;;10248586;28;20681;-82
2022/11/28 16:40:14;;;;;;;13.80;12.40;;;9.70;99.90;;;;;;10253405;28;20569;-81
2022/11/28 16:45:19;;;;;;;15.80;14.40;;;9.70;99.90;;;;;;10262030;28;20208;-83
2022/11/28 16:50:23;;;;;;;14.00;12.53;;;9.80;99.90;;;;;;10236678;28;20224;-84
2022/11/28 16:55:41;;;;;;;16.17;14.57;;;9.70;99.90;;;;;;10253912;28;20723;-81
2022/11/28 17:00:46;;;;;;;17.10;15.53;;;9.70;99.90;;;;;;10208256;28;20243;-84
2022/11/28 17:05:48;;;;;;;17.87;16.03;;;9.70;99.90;;;;;;10257209;28;20219;-84
2022/11/28 17:10:52;;;;;;;20.13;17.93;;;9.60;99.90;;;;;;10255516;28;20239;-84
2022/11/28 17:15:54;;;;;;;18.90;17.03;;;9.50;99.90;;;;;;10238479;28;20282;-82
2022/11/28 17:20:56;;;;;;;19.83;17.93;;;9.50;99.90;;;;;;10253120;28;20708;-82
2022/11/28 17:26:00;;;;;;;13.57;12.27;;;9.50;99.90;;;;;;10256091;28;20688;-84
2022/11/28 17:31:02;;;;;;;16.97;13.87;;;9.50;99.90;;;;;;10245961;28;20653;-82
2022/11/28 17:36:05;;;;;;;17.93;16.07;;;9.50;99.90;;;;;;10260968;28;20213;-82
2022/11/28 17:41:13;;;;;;;15.03;13.63;;;9.50;99.90;;;;;;10255725;28;20212;-84
2022/11/28 17:46:15;;;;;;;14.33;11.70;;;9.50;99.90;;;;;;10248995;28;20303;-84
2022/11/28 17:51:17;;;;;;;15.53;14.23;;;9.50;99.90;;;;;;10287952;28;20275;-83
2022/11/28 17:56:21;;;;;;;13.90;12.70;;;9.50;99.90;;;;;;10297673;28;20250;-81
2022/11/28 18:01:26;;;;;;;13.63;12.23;;;9.50;99.90;;;;;;10258280;28;20596;-81
2022/11/28 18:06:33;;;;;;;15.63;14.33;;;9.50;99.90;;;;;;10260085;28;20593;-82
2022/11/28 18:11:38;;;;;;;13.27;12.17;;;9.50;99.90;;;;;;10250441;28;20274;-82
2022/11/28 18:16:42;;;;;;;15.10;13.80;;;9.50;99.90;;;;;;10281179;28;20224;-82
2022/11/28 18:21:44;;;;;;;15.67;14.30;;;9.60;99.90;;;;;;10257036;28;20212;-80
2022/11/28 18:26:48;;;;;;;13.37;12.10;;;9.60;99.90;;;;;;10297795;28;20354;-79
2022/11/28 18:31:50;;;;;;;13.67;12.57;;;9.70;99.90;;;;;;10283232;28;20216;-79
2022/11/28 18:36:58;;;;;;;14.20;12.97;;;9.70;99.90;;;;;;10310740;28;20215;-79
2022/11/28 18:42:06;;;;;;;13.20;11.43;;;9.70;99.90;;;;;;10264872;28;20225;-79
2022/11/28 18:47:09;;;;;;;13.50;12.20;;;9.70;99.90;;;;;;10255754;28;20200;-79
2022/11/28 18:52:11;;;;;;;16.23;14.20;;;9.70;99.90;;;;;;10296931;28;20231;-79
2022/11/28 18:57:15;;;;;;;16.00;14.50;;;9.70;99.90;;;;;;10258286;28;20550;-79
2022/11/28 19:02:17;;;;;;;15.73;14.23;;;9.70;99.90;;;;;;10246548;28;20216;-79
2022/11/28 19:07:20;;;;;;;15.37;13.90;;;9.70;99.90;;;;;;10295756;28;20231;-80
2022/11/28 19:12:24;;;;;;;14.93;13.50;;;9.70;99.90;;;;;;10231749;28;20613;-80
2022/11/28 19:17:26;;;;;;;30.87;21.33;;;9.60;99.90;;;;;;10255254;28;20258;-80
2022/11/28 19:22:28;;;;;;;25.57;19.07;;;9.60;99.90;;;;;;10279054;28;20230;-81
2022/11/28 19:27:33;;;;;;;14.90;13.37;;;9.60;99.90;;;;;;10275049;28;20252;-81
2022/11/28 19:32:36;;;;;;;12.40;11.30;;;9.60;99.90;;;;;;10261847;28;20576;-81
2022/11/28 19:37:40;;;;;;;14.60;13.30;;;9.60;99.90;;;;;;10262050;28;20337;-79
2022/11/28 19:42:43;;;;;;;15.63;12.40;;;9.60;99.90;;;;;;10258554;28;20232;-81
2022/11/28 19:47:47;;;;;;;14.60;13.10;;;9.60;99.90;;;;;;10269704;28;20606;-80
2022/11/28 19:52:49;;;;;;;21.20;19.00;;;9.50;99.90;;;;;;10254213;28;20220;-79
2022/11/28 19:57:53;;;;;;;17.20;15.60;;;9.50;99.90;;;;;;10252962;28;20281;-77
2022/11/28 20:02:56;;;;;;;14.57;13.10;;;9.50;99.90;;;;;;10252397;28;20219;-78
2022/11/28 20:07:58;;;;;;;20.90;18.90;;;9.50;99.90;;;;;;10211790;29;20227;-80
2022/11/28 20:13:01;;;;;;;19.30;17.60;;;9.60;99.90;;;;;;10265677;28;20204;-78
2022/11/28 20:18:04;;;;;;;25.23;23.03;;;9.50;99.90;;;;;;10252471;28;20709;-79
2022/11/28 20:23:06;;;;;;;24.07;21.73;;;9.50;99.90;;;;;;10264802;28;20207;-80
2022/11/28 20:28:10;;;;;;;26.63;24.43;;;9.50;99.90;;;;;;10247270;28;20732;-79
2022/11/28 20:33:13;;;;;;;27.30;24.80;;;9.50;99.90;;;;;;10269382;28;20232;-79
2022/11/28 20:38:15;;;;;;;28.13;25.43;;;9.50;99.90;;;;;;10250885;28;21902;-79
2022/11/28 20:43:20;;;;;;;28.00;25.30;;;9.50;99.90;;;;;;10253860;28;20619;-82
2022/11/28 20:48:22;;;;;;;29.17;26.20;;;9.50;99.90;;;;;;10250040;28;20595;-80
2022/11/28 20:53:24;;;;;;;26.10;23.70;;;9.50;99.90;;;;;;10244742;28;20251;-80
2022/11/28 20:58:37;;;;;;;26.37;23.90;;;9.50;99.90;;;;;;10249913;28;20223;-79
2022/11/28 21:03:39;;;;;;;25.77;23.27;;;9.50;99.90;;;;;;10247031;28;20296;-79
2022/11/28 21:08:42;;;;;;;26.10;23.47;;;9.50;99.90;;;;;;10259010;28;20326;-79
2022/11/28 21:13:45;;;;;;;28.97;26.07;;;9.50;99.90;;;;;;10270518;28;20204;-78
2022/11/28 21:18:48;;;;;;;38.87;35.07;;;9.50;99.90;;;;;;10257948;28;20228;-79
2022/11/28 21:23:50;;;;;;;30.10;27.30;;;9.50;99.90;;;;;;10268839;28;20489;-79
2022/11/28 21:28:56;;;;;;;30.47;27.47;;;9.40;99.90;;;;;;10269648;28;20306;-79
2022/11/28 21:33:59;;;;;;;27.00;24.60;;;9.40;99.90;;;;;;10273163;28;20205;-79
2022/11/28 21:39:01;;;;;;;28.33;25.73;;;9.50;99.90;;;;;;10288729;28;20238;-79
2022/11/28 21:44:05;;;;;;;29.00;26.40;;;9.50;99.90;;;;;;10271664;28;20189;-79
2022/11/28 21:49:08;;;;;;;30.90;27.87;;;9.50;99.90;;;;;;10250537;28;20232;-79
2022/11/28 21:54:14;;;;;;;31.57;28.70;;;9.50;99.90;;;;;;10267164;28;20251;-79
2022/11/28 21:59:21;;;;;;;31.00;28.03;;;9.50;99.90;;;;;;10282064;28;20251;-79
2022/11/28 22:04:24;;;;;;;29.77;26.87;;;9.50;99.90;;;;;;10268048;28;20666;-79
2022/11/28 22:09:26;;;;;;;29.77;27.17;;;9.60;99.90;;;;;;10269550;28;20216;-79
2022/11/28 22:14:30;;;;;;;29.57;26.77;;;9.60;99.90;;;;;;10275552;28;20200;-79
2022/11/28 22:19:32;;;;;;;31.00;27.97;;;9.60;99.90;;;;;;10264642;28;20219;-80
2022/11/28 22:24:34;;;;;;;29.90;26.90;;;9.60;99.90;;;;;;10281390;28;20621;-80
2022/11/28 22:29:40;;;;;;;27.97;25.40;;;9.60;99.90;;;;;;10266287;28;20278;-80
2022/11/28 22:34:43;;;;;;;27.60;24.90;;;9.60;99.90;;;;;;10281379;28;20220;-80
2022/11/28 22:39:45;;;;;;;28.03;25.57;;;9.60;99.90;;;;;;10285961;28;20708;-80
2022/11/28 22:44:49;;;;;;;28.80;25.87;;;9.60;99.90;;;;;;10278048;28;20232;-79
2022/11/28 22:49:51;;;;;;;28.00;25.60;;;9.60;99.90;;;;;;10262395;28;20220;-79
2022/11/28 22:54:53;;;;;;;28.90;26.20;;;9.60;99.90;;;;;;10273237;28;20200;-79
2022/11/28 22:59:57;;;;;;;29.53;27.20;;;9.60;99.90;;;;;;10276951;28;20228;-79
2022/11/28 23:04:59;;;;;;;27.87;25.40;;;9.60;99.90;;;;;;10250361;29;20232;-79
2022/11/28 23:10:01;;;;;;;30.07;27.60;;;9.60;99.90;;;;;;10254963;28;20589;-79
2022/11/28 23:15:05;;;;;;;30.77;28.03;;;9.60;99.90;;;;;;10228731;29;20211;-79
2022/11/28 23:20:08;;;;;;;30.20;27.23;;;9.60;99.90;;;;;;10256434;28;20311;-79
2022/11/28 23:25:11;;;;;;;31.57;28.87;;;9.60;99.90;;;;;;10217554;29;20201;-79
2022/11/28 23:30:15;;;;;;;30.37;27.97;;;9.50;99.90;;;;;;10230919;28;20242;-80
2022/11/28 23:35:17;;;;;;;29.53;27.33;;;9.50;99.90;;;;;;10253067;28;20251;-79
2022/11/28 23:40:19;;;;;;;32.87;30.03;;;9.50;99.90;;;;;;10267009;28;20303;-79
2022/11/28 23:45:22;;;;;;;30.93;28.27;;;9.50;99.90;;;;;;10269898;28;20284;-79
2022/11/28 23:50:24;;;;;;;31.60;28.63;;;9.50;99.90;;;;;;10271290;28;20212;-79
2022/11/28 23:55:26;;;;;;;32.47;29.80;;;9.50;99.90;;;;;;10261086;28;20208;-80
